sensor_id;sensor_type;location;lat;lon;timestamp;P1;durP1;ratioP1;P2;durP2;ratioP2
12151;SDS011;6139;51.274;7.128;2023-06-01T00:00:34;5.53;;;2.97;;
12151;SDS011;6139;51.274;7.128;2023-06-01T00:01:39;4.25;;;2.90;;
12151;SDS011;6139;51.274;7.128;2023-06-01T00:02:41;4.72;;;3.70;;
12151;SDS011;6139;51.274;7.128;2023-06-01T00:03:43;3.85;;;2.78;;
12151;SDS011;6139;51.274;7.128;2023-06-01T00:04:46;8.63;;;3.60;;
12151;SDS011;6139;51.274;7.128;2023-06-01T00:05:50;5.80;;;3.15;;
12151;SDS011;6139;51.274;7.128;2023-06-01T00:06:51;3.22;;;2.55;;
12151;SDS011;6139;51.274;7.128;2023-06-01T00:07:53;3.97;;;3.05;;
12151;SDS011;6139;51.274;7.128;2023-06-01T00:08:55;4.63;;;2.92;;
12151;SDS011;6139;51.274;7.128;2023-06-01T00:09:57;3.75;;;2.88;;
12151;SDS011;6139;51.274;7.128;2023-06-01T00:10:58;5.03;;;2.78;;
12151;SDS011;6139;51.274;7.128;2023-06-01T00:12:00;4.32;;;2.90;;
12151;SDS011;6139;51.274;7.128;2023-06-01T00:13:02;4.00;;;2.70;;
12151;SDS011;6139;51.274;7.128;2023-06-01T00:14:04;4.68;;;3.10;;
12151;SDS011;6139;51.274;7.128;2023-06-01T00:15:06;5.57;;;2.88;;
12151;SDS011;6139;51.274;7.128;2023-06-01T00:16:09;6.60;;;2.72;;
12151;SDS011;6139;51.274;7.128;2023-06-01T00:17:10;6.07;;;2.90;;
12151;SDS011;6139;51.274;7.128;2023-06-01T00:18:13;4.47;;;3.15;;
12151;SDS011;6139;51.274;7.128;2023-06-01T00:19:15;4.03;;;3.15;;
12151;SDS011;6139;51.274;7.128;2023-06-01T00:20:19;5.50;;;3.25;;
12151;SDS011;6139;51.274;7.128;2023-06-01T00:21:20;4.82;;;3.20;;
12151;SDS011;6139;51.274;7.128;2023-06-01T00:22:22;3.78;;;2.90;;
12151;SDS011;6139;51.274;7.128;2023-06-01T00:23:24;5.95;;;3.15;;
12151;SDS011;6139;51.274;7.128;2023-06-01T00:24:26;3.95;;;3.17;;
12151;SDS011;6139;51.274;7.128;2023-06-01T00:25:27;4.53;;;3.08;;
12151;SDS011;6139;51.274;7.128;2023-06-01T00:26:30;8.35;;;3.47;;
12151;SDS011;6139;51.274;7.128;2023-06-01T00:27:33;5.25;;;3.00;;
12151;SDS011;6139;51.274;7.128;2023-06-01T00:28:36;6.57;;;3.50;;
12151;SDS011;6139;51.274;7.128;2023-06-01T00:29:37;9.73;;;3.90;;
12151;SDS011;6139;51.274;7.128;2023-06-01T00:30:39;3.72;;;2.95;;
12151;SDS011;6139;51.274;7.128;2023-06-01T00:31:43;5.95;;;3.30;;
12151;SDS011;6139;51.274;7.128;2023-06-01T00:32:45;3.63;;;2.80;;
12151;SDS011;6139;51.274;7.128;2023-06-01T00:33:47;4.82;;;3.35;;
12151;SDS011;6139;51.274;7.128;2023-06-01T00:34:48;4.88;;;3.30;;
12151;SDS011;6139;51.274;7.128;2023-06-01T00:35:52;4.03;;;2.97;;
12151;SDS011;6139;51.274;7.128;2023-06-01T00:36:53;4.40;;;3.08;;
12151;SDS011;6139;51.274;7.128;2023-06-01T00:37:56;4.07;;;3.10;;
12151;SDS011;6139;51.274;7.128;2023-06-01T00:38:57;5.10;;;3.25;;
12151;SDS011;6139;51.274;7.128;2023-06-01T00:40:03;5.35;;;3.40;;
12151;SDS011;6139;51.274;7.128;2023-06-01T00:41:06;6.25;;;3.00;;
12151;SDS011;6139;51.274;7.128;2023-06-01T00:42:08;4.80;;;3.55;;
12151;SDS011;6139;51.274;7.128;2023-06-01T00:43:09;5.18;;;3.45;;
12151;SDS011;6139;51.274;7.128;2023-06-01T00:44:12;3.50;;;3.03;;
12151;SDS011;6139;51.274;7.128;2023-06-01T00:45:13;6.05;;;3.60;;
12151;SDS011;6139;51.274;7.128;2023-06-01T00:46:17;4.78;;;3.13;;
12151;SDS011;6139;51.274;7.128;2023-06-01T00:47:18;6.95;;;4.28;;
12151;SDS011;6139;51.274;7.128;2023-06-01T00:48:23;4.55;;;3.42;;
12151;SDS011;6139;51.274;7.128;2023-06-01T00:49:25;7.25;;;4.05;;
12151;SDS011;6139;51.274;7.128;2023-06-01T00:50:27;5.50;;;3.95;;
12151;SDS011;6139;51.274;7.128;2023-06-01T00:51:31;5.93;;;3.65;;
12151;SDS011;6139;51.274;7.128;2023-06-01T00:52:34;8.02;;;4.22;;
12151;SDS011;6139;51.274;7.128;2023-06-01T00:53:37;4.88;;;3.67;;
12151;SDS011;6139;51.274;7.128;2023-06-01T00:54:40;7.18;;;3.85;;
12151;SDS011;6139;51.274;7.128;2023-06-01T00:55:42;9.32;;;4.15;;
12151;SDS011;6139;51.274;7.128;2023-06-01T00:56:45;6.28;;;3.97;;
12151;SDS011;6139;51.274;7.128;2023-06-01T00:57:46;7.18;;;3.63;;
12151;SDS011;6139;51.274;7.128;2023-06-01T00:58:50;5.38;;;3.80;;
12151;SDS011;6139;51.274;7.128;2023-06-01T00:59:51;5.53;;;4.13;;
12151;SDS011;6139;51.274;7.128;2023-06-01T01:00:53;9.02;;;4.10;;
12151;SDS011;6139;51.274;7.128;2023-06-01T01:01:55;5.38;;;3.90;;
12151;SDS011;6139;51.274;7.128;2023-06-01T01:02:57;7.82;;;4.38;;
12151;SDS011;6139;51.274;7.128;2023-06-01T01:04:07;5.82;;;4.22;;
12151;SDS011;6139;51.274;7.128;2023-06-01T01:05:11;7.55;;;4.00;;
12151;SDS011;6139;51.274;7.128;2023-06-01T01:06:15;6.03;;;3.50;;
12151;SDS011;6139;51.274;7.128;2023-06-01T01:07:28;5.10;;;3.60;;
12151;SDS011;6139;51.274;7.128;2023-06-01T01:08:37;7.82;;;4.57;;
12151;SDS011;6139;51.274;7.128;2023-06-01T01:09:49;5.40;;;3.88;;
12151;SDS011;6139;51.274;7.128;2023-06-01T01:11:07;6.32;;;3.88;;
12151;SDS011;6139;51.274;7.128;2023-06-01T01:12:17;4.72;;;3.97;;
12151;SDS011;6139;51.274;7.128;2023-06-01T01:13:28;6.80;;;4.38;;
12151;SDS011;6139;51.274;7.128;2023-06-01T01:14:38;7.68;;;3.85;;
12151;SDS011;6139;51.274;7.128;2023-06-01T01:15:47;8.63;;;4.28;;
12151;SDS011;6139;51.274;7.128;2023-06-01T01:16:57;7.60;;;4.07;;
12151;SDS011;6139;51.274;7.128;2023-06-01T01:18:04;5.13;;;3.78;;
12151;SDS011;6139;51.274;7.128;2023-06-01T01:19:11;7.07;;;4.45;;
12151;SDS011;6139;51.274;7.128;2023-06-01T01:20:28;7.40;;;4.55;;
12151;SDS011;6139;51.274;7.128;2023-06-01T01:21:35;6.85;;;4.20;;
12151;SDS011;6139;51.274;7.128;2023-06-01T01:22:46;7.47;;;4.47;;
12151;SDS011;6139;51.274;7.128;2023-06-01T01:24:15;5.28;;;3.90;;
12151;SDS011;6139;51.274;7.128;2023-06-01T01:25:30;5.80;;;4.43;;
12151;SDS011;6139;51.274;7.128;2023-06-01T01:26:56;6.15;;;3.88;;
12151;SDS011;6139;51.274;7.128;2023-06-01T01:28:10;6.32;;;4.10;;
12151;SDS011;6139;51.274;7.128;2023-06-01T01:29:25;6.50;;;3.95;;
12151;SDS011;6139;51.274;7.128;2023-06-01T01:30:29;5.97;;;4.03;;
12151;SDS011;6139;51.274;7.128;2023-06-01T01:31:31;6.03;;;3.72;;
12151;SDS011;6139;51.274;7.128;2023-06-01T01:32:36;5.60;;;3.95;;
12151;SDS011;6139;51.274;7.128;2023-06-01T01:33:39;4.22;;;3.83;;
12151;SDS011;6139;51.274;7.128;2023-06-01T01:34:43;6.45;;;4.05;;
12151;SDS011;6139;51.274;7.128;2023-06-01T01:35:48;8.30;;;4.70;;
12151;SDS011;6139;51.274;7.128;2023-06-01T01:36:51;7.40;;;4.30;;
12151;SDS011;6139;51.274;7.128;2023-06-01T01:37:53;7.03;;;4.32;;
12151;SDS011;6139;51.274;7.128;2023-06-01T01:38:58;8.23;;;4.40;;
12151;SDS011;6139;51.274;7.128;2023-06-01T01:40:00;5.45;;;4.07;;
12151;SDS011;6139;51.274;7.128;2023-06-01T01:41:03;7.45;;;4.60;;
12151;SDS011;6139;51.274;7.128;2023-06-01T01:42:05;6.70;;;4.13;;
12151;SDS011;6139;51.274;7.128;2023-06-01T01:43:09;7.45;;;4.35;;
12151;SDS011;6139;51.274;7.128;2023-06-01T01:44:12;8.40;;;4.90;;
12151;SDS011;6139;51.274;7.128;2023-06-01T01:45:16;7.25;;;4.22;;
12151;SDS011;6139;51.274;7.128;2023-06-01T01:46:21;7.93;;;4.45;;
12151;SDS011;6139;51.274;7.128;2023-06-01T01:47:27;4.28;;;3.70;;
12151;SDS011;6139;51.274;7.128;2023-06-01T01:48:36;5.30;;;4.30;;
12151;SDS011;6139;51.274;7.128;2023-06-01T01:49:43;6.32;;;3.97;;
12151;SDS011;6139;51.274;7.128;2023-06-01T01:50:48;5.75;;;4.25;;
12151;SDS011;6139;51.274;7.128;2023-06-01T01:51:56;6.18;;;4.47;;
12151;SDS011;6139;51.274;7.128;2023-06-01T01:53:04;7.70;;;4.57;;
12151;SDS011;6139;51.274;7.128;2023-06-01T01:54:10;7.53;;;4.78;;
12151;SDS011;6139;51.274;7.128;2023-06-01T01:55:14;7.35;;;4.82;;
12151;SDS011;6139;51.274;7.128;2023-06-01T01:56:18;7.70;;;4.35;;
12151;SDS011;6139;51.274;7.128;2023-06-01T01:57:21;7.35;;;4.53;;
12151;SDS011;6139;51.274;7.128;2023-06-01T01:58:23;7.90;;;4.43;;
12151;SDS011;6139;51.274;7.128;2023-06-01T01:59:28;9.07;;;4.85;;
12151;SDS011;6139;51.274;7.128;2023-06-01T02:00:30;5.70;;;4.70;;
12151;SDS011;6139;51.274;7.128;2023-06-01T02:01:33;6.80;;;4.80;;
12151;SDS011;6139;51.274;7.128;2023-06-01T02:02:35;10.25;;;5.50;;
12151;SDS011;6139;51.274;7.128;2023-06-01T02:03:38;8.13;;;5.05;;
12151;SDS011;6139;51.274;7.128;2023-06-01T02:04:40;7.57;;;5.18;;
12151;SDS011;6139;51.274;7.128;2023-06-01T02:05:43;6.43;;;5.18;;
12151;SDS011;6139;51.274;7.128;2023-06-01T02:06:45;7.13;;;4.55;;
12151;SDS011;6139;51.274;7.128;2023-06-01T02:07:48;9.40;;;5.40;;
12151;SDS011;6139;51.274;7.128;2023-06-01T02:08:50;5.93;;;4.55;;
12151;SDS011;6139;51.274;7.128;2023-06-01T02:09:52;7.72;;;4.70;;
12151;SDS011;6139;51.274;7.128;2023-06-01T02:10:54;8.30;;;4.50;;
12151;SDS011;6139;51.274;7.128;2023-06-01T02:11:56;6.68;;;4.72;;
12151;SDS011;6139;51.274;7.128;2023-06-01T02:12:58;5.68;;;4.78;;
12151;SDS011;6139;51.274;7.128;2023-06-01T02:14:00;7.20;;;5.15;;
12151;SDS011;6139;51.274;7.128;2023-06-01T02:15:04;6.97;;;4.82;;
12151;SDS011;6139;51.274;7.128;2023-06-01T02:16:08;9.07;;;5.60;;
12151;SDS011;6139;51.274;7.128;2023-06-01T02:17:09;6.85;;;4.68;;
12151;SDS011;6139;51.274;7.128;2023-06-01T02:18:12;8.75;;;5.13;;
12151;SDS011;6139;51.274;7.128;2023-06-01T02:19:18;6.40;;;5.07;;
12151;SDS011;6139;51.274;7.128;2023-06-01T02:20:20;7.68;;;5.10;;
12151;SDS011;6139;51.274;7.128;2023-06-01T02:21:22;10.07;;;5.88;;
12151;SDS011;6139;51.274;7.128;2023-06-01T02:22:24;8.30;;;5.40;;
12151;SDS011;6139;51.274;7.128;2023-06-01T02:23:26;9.43;;;5.50;;
12151;SDS011;6139;51.274;7.128;2023-06-01T02:24:28;10.85;;;5.72;;
12151;SDS011;6139;51.274;7.128;2023-06-01T02:25:30;6.88;;;5.47;;
12151;SDS011;6139;51.274;7.128;2023-06-01T02:26:33;7.70;;;5.40;;
12151;SDS011;6139;51.274;7.128;2023-06-01T02:27:34;11.13;;;5.47;;
12151;SDS011;6139;51.274;7.128;2023-06-01T02:28:37;9.48;;;6.45;;
12151;SDS011;6139;51.274;7.128;2023-06-01T02:29:39;8.88;;;6.47;;
12151;SDS011;6139;51.274;7.128;2023-06-01T02:30:43;9.75;;;6.65;;
12151;SDS011;6139;51.274;7.128;2023-06-01T02:31:44;9.43;;;6.80;;
12151;SDS011;6139;51.274;7.128;2023-06-01T02:32:47;9.35;;;6.68;;
12151;SDS011;6139;51.274;7.128;2023-06-01T02:33:49;12.30;;;7.40;;
12151;SDS011;6139;51.274;7.128;2023-06-01T02:34:53;9.40;;;7.47;;
12151;SDS011;6139;51.274;7.128;2023-06-01T02:35:54;8.20;;;6.55;;
12151;SDS011;6139;51.274;7.128;2023-06-01T02:36:56;10.95;;;7.60;;
12151;SDS011;6139;51.274;7.128;2023-06-01T02:37:58;13.23;;;7.95;;
12151;SDS011;6139;51.274;7.128;2023-06-01T02:39:01;11.00;;;7.85;;
12151;SDS011;6139;51.274;7.128;2023-06-01T02:40:02;11.18;;;7.57;;
12151;SDS011;6139;51.274;7.128;2023-06-01T02:41:09;14.82;;;7.60;;
12151;SDS011;6139;51.274;7.128;2023-06-01T02:42:10;15.30;;;8.10;;
12151;SDS011;6139;51.274;7.128;2023-06-01T02:43:13;12.15;;;8.43;;
12151;SDS011;6139;51.274;7.128;2023-06-01T02:44:14;11.18;;;8.00;;
12151;SDS011;6139;51.274;7.128;2023-06-01T02:45:17;11.60;;;8.77;;
12151;SDS011;6139;51.274;7.128;2023-06-01T02:46:19;12.15;;;7.85;;
12151;SDS011;6139;51.274;7.128;2023-06-01T02:47:22;14.00;;;8.25;;
12151;SDS011;6139;51.274;7.128;2023-06-01T02:48:24;12.63;;;8.68;;
12151;SDS011;6139;51.274;7.128;2023-06-01T02:49:26;12.40;;;8.63;;
12151;SDS011;6139;51.274;7.128;2023-06-01T02:50:28;15.82;;;8.60;;
12151;SDS011;6139;51.274;7.128;2023-06-01T02:51:30;10.38;;;8.13;;
12151;SDS011;6139;51.274;7.128;2023-06-01T02:52:40;13.75;;;8.18;;
12151;SDS011;6139;51.274;7.128;2023-06-01T02:53:44;13.48;;;8.77;;
12151;SDS011;6139;51.274;7.128;2023-06-01T02:54:47;16.67;;;9.18;;
12151;SDS011;6139;51.274;7.128;2023-06-01T02:56:16;11.55;;;8.77;;
12151;SDS011;6139;51.274;7.128;2023-06-01T02:57:26;12.88;;;8.98;;
12151;SDS011;6139;51.274;7.128;2023-06-01T02:58:32;13.65;;;8.98;;
12151;SDS011;6139;51.274;7.128;2023-06-01T02:59:52;11.25;;;8.77;;
12151;SDS011;6139;51.274;7.128;2023-06-01T03:00:54;12.55;;;9.40;;
12151;SDS011;6139;51.274;7.128;2023-06-01T03:01:57;15.20;;;9.23;;
12151;SDS011;6139;51.274;7.128;2023-06-01T03:02:59;12.90;;;9.23;;
12151;SDS011;6139;51.274;7.128;2023-06-01T03:04:01;12.63;;;9.80;;
12151;SDS011;6139;51.274;7.128;2023-06-01T03:05:06;16.35;;;9.85;;
12151;SDS011;6139;51.274;7.128;2023-06-01T03:06:08;12.27;;;8.48;;
12151;SDS011;6139;51.274;7.128;2023-06-01T03:07:31;14.45;;;9.25;;
12151;SDS011;6139;51.274;7.128;2023-06-01T03:08:43;19.27;;;9.70;;
12151;SDS011;6139;51.274;7.128;2023-06-01T03:10:03;15.43;;;9.90;;
12151;SDS011;6139;51.274;7.128;2023-06-01T03:11:29;13.38;;;9.85;;
12151;SDS011;6139;51.274;7.128;2023-06-01T03:12:32;14.45;;;10.23;;
12151;SDS011;6139;51.274;7.128;2023-06-01T03:13:34;15.95;;;11.85;;
12151;SDS011;6139;51.274;7.128;2023-06-01T03:14:36;17.02;;;11.85;;
12151;SDS011;6139;51.274;7.128;2023-06-01T03:15:38;15.32;;;11.40;;
12151;SDS011;6139;51.274;7.128;2023-06-01T03:16:40;18.02;;;12.00;;
12151;SDS011;6139;51.274;7.128;2023-06-01T03:17:50;17.15;;;12.60;;
12151;SDS011;6139;51.274;7.128;2023-06-01T03:18:52;17.23;;;11.57;;
12151;SDS011;6139;51.274;7.128;2023-06-01T03:19:56;14.77;;;11.43;;
12151;SDS011;6139;51.274;7.128;2023-06-01T03:20:59;17.48;;;11.95;;
12151;SDS011;6139;51.274;7.128;2023-06-01T03:22:00;20.05;;;12.65;;
12151;SDS011;6139;51.274;7.128;2023-06-01T03:23:02;20.63;;;13.07;;
12151;SDS011;6139;51.274;7.128;2023-06-01T03:24:04;19.98;;;14.05;;
12151;SDS011;6139;51.274;7.128;2023-06-01T03:25:07;20.27;;;14.52;;
12151;SDS011;6139;51.274;7.128;2023-06-01T03:26:09;24.30;;;14.90;;
12151;SDS011;6139;51.274;7.128;2023-06-01T03:27:13;20.77;;;15.35;;
12151;SDS011;6139;51.274;7.128;2023-06-01T03:28:14;22.77;;;15.65;;
12151;SDS011;6139;51.274;7.128;2023-06-01T03:29:17;23.83;;;16.75;;
12151;SDS011;6139;51.274;7.128;2023-06-01T03:30:18;25.88;;;17.50;;
12151;SDS011;6139;51.274;7.128;2023-06-01T03:31:22;22.20;;;16.50;;
12151;SDS011;6139;51.274;7.128;2023-06-01T03:32:27;27.25;;;17.02;;
12151;SDS011;6139;51.274;7.128;2023-06-01T03:33:33;26.08;;;17.35;;
12151;SDS011;6139;51.274;7.128;2023-06-01T03:34:36;28.30;;;17.25;;
12151;SDS011;6139;51.274;7.128;2023-06-01T03:35:40;31.67;;;18.67;;
12151;SDS011;6139;51.274;7.128;2023-06-01T03:36:42;30.30;;;19.05;;
12151;SDS011;6139;51.274;7.128;2023-06-01T03:37:49;29.35;;;19.88;;
12151;SDS011;6139;51.274;7.128;2023-06-01T03:38:54;29.90;;;18.85;;
12151;SDS011;6139;51.274;7.128;2023-06-01T03:39:59;30.42;;;19.13;;
12151;SDS011;6139;51.274;7.128;2023-06-01T03:41:13;32.75;;;21.27;;
12151;SDS011;6139;51.274;7.128;2023-06-01T03:42:15;31.63;;;20.13;;
12151;SDS011;6139;51.274;7.128;2023-06-01T03:43:17;32.25;;;20.83;;
12151;SDS011;6139;51.274;7.128;2023-06-01T03:44:19;30.85;;;22.17;;
12151;SDS011;6139;51.274;7.128;2023-06-01T03:45:21;35.22;;;22.77;;
12151;SDS011;6139;51.274;7.128;2023-06-01T03:46:23;34.33;;;22.77;;
12151;SDS011;6139;51.274;7.128;2023-06-01T03:47:25;34.33;;;22.02;;
12151;SDS011;6139;51.274;7.128;2023-06-01T03:48:28;35.53;;;21.77;;
12151;SDS011;6139;51.274;7.128;2023-06-01T03:49:32;35.67;;;21.85;;
12151;SDS011;6139;51.274;7.128;2023-06-01T03:50:34;31.92;;;22.27;;
12151;SDS011;6139;51.274;7.128;2023-06-01T03:51:37;35.25;;;22.95;;
12151;SDS011;6139;51.274;7.128;2023-06-01T03:52:40;30.08;;;22.02;;
12151;SDS011;6139;51.274;7.128;2023-06-01T03:53:42;32.28;;;20.90;;
12151;SDS011;6139;51.274;7.128;2023-06-01T03:54:44;30.70;;;21.95;;
12151;SDS011;6139;51.274;7.128;2023-06-01T03:56:03;33.58;;;21.85;;
12151;SDS011;6139;51.274;7.128;2023-06-01T03:57:09;32.95;;;21.75;;
12151;SDS011;6139;51.274;7.128;2023-06-01T03:58:11;34.25;;;21.42;;
12151;SDS011;6139;51.274;7.128;2023-06-01T03:59:13;32.53;;;21.25;;
12151;SDS011;6139;51.274;7.128;2023-06-01T04:00:15;35.17;;;22.40;;
12151;SDS011;6139;51.274;7.128;2023-06-01T04:01:26;33.22;;;21.90;;
12151;SDS011;6139;51.274;7.128;2023-06-01T04:02:29;31.92;;;20.98;;
12151;SDS011;6139;51.274;7.128;2023-06-01T04:03:32;35.38;;;21.45;;
12151;SDS011;6139;51.274;7.128;2023-06-01T04:04:36;32.65;;;21.75;;
12151;SDS011;6139;51.274;7.128;2023-06-01T04:05:37;32.95;;;20.85;;
12151;SDS011;6139;51.274;7.128;2023-06-01T04:06:41;33.00;;;22.30;;
12151;SDS011;6139;51.274;7.128;2023-06-01T04:07:46;32.65;;;20.85;;
12151;SDS011;6139;51.274;7.128;2023-06-01T04:08:50;35.83;;;21.92;;
12151;SDS011;6139;51.274;7.128;2023-06-01T04:09:57;28.17;;;19.92;;
12151;SDS011;6139;51.274;7.128;2023-06-01T04:11:00;35.40;;;22.17;;
12151;SDS011;6139;51.274;7.128;2023-06-01T04:12:02;35.55;;;22.15;;
12151;SDS011;6139;51.274;7.128;2023-06-01T04:13:06;33.08;;;22.35;;
12151;SDS011;6139;51.274;7.128;2023-06-01T04:14:07;33.72;;;21.92;;
12151;SDS011;6139;51.274;7.128;2023-06-01T04:15:11;33.72;;;21.45;;
12151;SDS011;6139;51.274;7.128;2023-06-01T04:16:14;34.30;;;22.05;;
12151;SDS011;6139;51.274;7.128;2023-06-01T04:17:17;29.30;;;19.98;;
12151;SDS011;6139;51.274;7.128;2023-06-01T04:18:19;35.20;;;21.75;;
12151;SDS011;6139;51.274;7.128;2023-06-01T04:19:29;34.38;;;21.75;;
12151;SDS011;6139;51.274;7.128;2023-06-01T04:20:38;37.28;;;21.73;;
12151;SDS011;6139;51.274;7.128;2023-06-01T04:21:40;34.20;;;21.45;;
12151;SDS011;6139;51.274;7.128;2023-06-01T04:22:44;36.10;;;21.55;;
12151;SDS011;6139;51.274;7.128;2023-06-01T04:23:47;36.42;;;21.48;;
12151;SDS011;6139;51.274;7.128;2023-06-01T04:24:49;39.60;;;22.38;;
12151;SDS011;6139;51.274;7.128;2023-06-01T04:25:52;36.45;;;21.13;;
12151;SDS011;6139;51.274;7.128;2023-06-01T04:26:59;37.72;;;22.45;;
12151;SDS011;6139;51.274;7.128;2023-06-01T04:28:03;34.13;;;22.00;;
12151;SDS011;6139;51.274;7.128;2023-06-01T04:29:07;37.22;;;21.77;;
12151;SDS011;6139;51.274;7.128;2023-06-01T04:30:12;36.28;;;23.13;;
12151;SDS011;6139;51.274;7.128;2023-06-01T04:31:16;34.15;;;21.05;;
12151;SDS011;6139;51.274;7.128;2023-06-01T04:32:21;36.88;;;22.63;;
12151;SDS011;6139;51.274;7.128;2023-06-01T04:33:22;38.72;;;21.75;;
12151;SDS011;6139;51.274;7.128;2023-06-01T04:34:26;38.95;;;22.30;;
12151;SDS011;6139;51.274;7.128;2023-06-01T04:35:30;37.63;;;22.52;;
12151;SDS011;6139;51.274;7.128;2023-06-01T04:36:35;37.38;;;23.10;;
12151;SDS011;6139;51.274;7.128;2023-06-01T04:37:40;40.17;;;22.42;;
12151;SDS011;6139;51.274;7.128;2023-06-01T04:38:45;37.47;;;22.38;;
12151;SDS011;6139;51.274;7.128;2023-06-01T04:39:51;37.28;;;22.52;;
12151;SDS011;6139;51.274;7.128;2023-06-01T04:40:53;38.20;;;22.90;;
12151;SDS011;6139;51.274;7.128;2023-06-01T04:41:56;39.83;;;23.10;;
12151;SDS011;6139;51.274;7.128;2023-06-01T04:42:58;39.72;;;23.25;;
12151;SDS011;6139;51.274;7.128;2023-06-01T04:44:03;33.90;;;21.77;;
12151;SDS011;6139;51.274;7.128;2023-06-01T04:45:07;37.65;;;22.50;;
12151;SDS011;6139;51.274;7.128;2023-06-01T04:46:11;36.53;;;23.45;;
12151;SDS011;6139;51.274;7.128;2023-06-01T04:47:12;38.38;;;24.05;;
12151;SDS011;6139;51.274;7.128;2023-06-01T04:48:19;35.85;;;22.90;;
12151;SDS011;6139;51.274;7.128;2023-06-01T04:49:33;38.33;;;22.25;;
12151;SDS011;6139;51.274;7.128;2023-06-01T04:50:37;37.47;;;23.70;;
12151;SDS011;6139;51.274;7.128;2023-06-01T04:51:40;36.33;;;23.10;;
12151;SDS011;6139;51.274;7.128;2023-06-01T04:52:46;36.17;;;23.48;;
12151;SDS011;6139;51.274;7.128;2023-06-01T04:53:50;37.72;;;23.17;;
12151;SDS011;6139;51.274;7.128;2023-06-01T04:54:53;37.95;;;24.13;;
12151;SDS011;6139;51.274;7.128;2023-06-01T04:55:55;37.78;;;23.98;;
12151;SDS011;6139;51.274;7.128;2023-06-01T04:56:59;39.53;;;24.33;;
12151;SDS011;6139;51.274;7.128;2023-06-01T04:58:01;39.13;;;23.92;;
12151;SDS011;6139;51.274;7.128;2023-06-01T04:59:04;43.67;;;25.48;;
12151;SDS011;6139;51.274;7.128;2023-06-01T05:00:06;38.03;;;24.60;;
12151;SDS011;6139;51.274;7.128;2023-06-01T05:01:13;36.58;;;24.83;;
12151;SDS011;6139;51.274;7.128;2023-06-01T05:02:16;39.88;;;25.40;;
12151;SDS011;6139;51.274;7.128;2023-06-01T05:03:18;39.95;;;25.77;;
12151;SDS011;6139;51.274;7.128;2023-06-01T05:04:20;40.55;;;26.67;;
12151;SDS011;6139;51.274;7.128;2023-06-01T05:05:22;39.60;;;25.38;;
12151;SDS011;6139;51.274;7.128;2023-06-01T05:06:24;42.60;;;24.83;;
12151;SDS011;6139;51.274;7.128;2023-06-01T05:07:28;42.40;;;26.60;;
12151;SDS011;6139;51.274;7.128;2023-06-01T05:08:29;44.83;;;26.77;;
12151;SDS011;6139;51.274;7.128;2023-06-01T05:09:33;41.47;;;24.58;;
12151;SDS011;6139;51.274;7.128;2023-06-01T05:10:35;42.65;;;26.30;;
12151;SDS011;6139;51.274;7.128;2023-06-01T05:11:38;41.67;;;25.98;;
12151;SDS011;6139;51.274;7.128;2023-06-01T05:12:39;45.42;;;27.25;;
12151;SDS011;6139;51.274;7.128;2023-06-01T05:13:42;42.42;;;26.77;;
12151;SDS011;6139;51.274;7.128;2023-06-01T05:14:45;37.40;;;24.58;;
12151;SDS011;6139;51.274;7.128;2023-06-01T05:15:47;48.17;;;27.00;;
12151;SDS011;6139;51.274;7.128;2023-06-01T05:16:50;43.35;;;26.00;;
12151;SDS011;6139;51.274;7.128;2023-06-01T05:17:52;38.67;;;25.85;;
12151;SDS011;6139;51.274;7.128;2023-06-01T05:18:55;42.03;;;27.15;;
12151;SDS011;6139;51.274;7.128;2023-06-01T05:19:57;42.05;;;26.40;;
12151;SDS011;6139;51.274;7.128;2023-06-01T05:20:59;46.72;;;28.52;;
12151;SDS011;6139;51.274;7.128;2023-06-01T05:22:01;42.92;;;27.80;;
12151;SDS011;6139;51.274;7.128;2023-06-01T05:23:05;45.25;;;28.90;;
12151;SDS011;6139;51.274;7.128;2023-06-01T05:24:06;42.40;;;27.98;;
12151;SDS011;6139;51.274;7.128;2023-06-01T05:25:09;43.22;;;28.30;;
12151;SDS011;6139;51.274;7.128;2023-06-01T05:26:11;41.20;;;27.33;;
12151;SDS011;6139;51.274;7.128;2023-06-01T05:27:13;41.10;;;27.75;;
12151;SDS011;6139;51.274;7.128;2023-06-01T05:28:15;46.90;;;29.33;;
12151;SDS011;6139;51.274;7.128;2023-06-01T05:29:17;38.38;;;28.02;;
12151;SDS011;6139;51.274;7.128;2023-06-01T05:30:18;42.08;;;27.65;;
12151;SDS011;6139;51.274;7.128;2023-06-01T05:31:23;37.95;;;26.45;;
12151;SDS011;6139;51.274;7.128;2023-06-01T05:32:28;37.30;;;26.65;;
12151;SDS011;6139;51.274;7.128;2023-06-01T05:33:36;40.63;;;26.48;;
12151;SDS011;6139;51.274;7.128;2023-06-01T05:34:38;38.35;;;26.50;;
12151;SDS011;6139;51.274;7.128;2023-06-01T05:35:40;35.55;;;23.90;;
12151;SDS011;6139;51.274;7.128;2023-06-01T05:36:42;33.97;;;24.02;;
12151;SDS011;6139;51.274;7.128;2023-06-01T05:37:45;36.53;;;23.23;;
12151;SDS011;6139;51.274;7.128;2023-06-01T05:38:47;37.85;;;24.98;;
12151;SDS011;6139;51.274;7.128;2023-06-01T05:39:50;34.28;;;23.33;;
12151;SDS011;6139;51.274;7.128;2023-06-01T05:40:57;30.25;;;20.83;;
12151;SDS011;6139;51.274;7.128;2023-06-01T05:41:59;27.90;;;20.52;;
12151;SDS011;6139;51.274;7.128;2023-06-01T05:43:08;32.17;;;19.75;;
12151;SDS011;6139;51.274;7.128;2023-06-01T05:44:10;26.42;;;19.70;;
12151;SDS011;6139;51.274;7.128;2023-06-01T05:45:12;32.88;;;20.75;;
12151;SDS011;6139;51.274;7.128;2023-06-01T05:46:15;29.50;;;19.73;;
12151;SDS011;6139;51.274;7.128;2023-06-01T05:47:16;30.15;;;19.75;;
12151;SDS011;6139;51.274;7.128;2023-06-01T05:48:19;29.65;;;19.63;;
12151;SDS011;6139;51.274;7.128;2023-06-01T05:49:27;29.23;;;20.48;;
12151;SDS011;6139;51.274;7.128;2023-06-01T05:50:31;28.50;;;20.83;;
12151;SDS011;6139;51.274;7.128;2023-06-01T05:51:33;28.27;;;20.85;;
12151;SDS011;6139;51.274;7.128;2023-06-01T05:52:38;31.77;;;20.52;;
12151;SDS011;6139;51.274;7.128;2023-06-01T05:53:40;29.83;;;20.38;;
12151;SDS011;6139;51.274;7.128;2023-06-01T05:54:44;28.08;;;20.27;;
12151;SDS011;6139;51.274;7.128;2023-06-01T05:55:45;27.42;;;19.85;;
12151;SDS011;6139;51.274;7.128;2023-06-01T05:56:48;29.75;;;19.17;;
12151;SDS011;6139;51.274;7.128;2023-06-01T05:57:52;27.15;;;18.58;;
12151;SDS011;6139;51.274;7.128;2023-06-01T05:58:54;27.67;;;19.25;;
12151;SDS011;6139;51.274;7.128;2023-06-01T05:59:56;27.33;;;19.08;;
12151;SDS011;6139;51.274;7.128;2023-06-01T06:00:58;30.45;;;21.50;;
12151;SDS011;6139;51.274;7.128;2023-06-01T06:02:01;31.88;;;20.58;;
12151;SDS011;6139;51.274;7.128;2023-06-01T06:03:02;30.80;;;20.33;;
12151;SDS011;6139;51.274;7.128;2023-06-01T06:04:05;34.22;;;21.90;;
12151;SDS011;6139;51.274;7.128;2023-06-01T06:05:07;34.72;;;22.15;;
12151;SDS011;6139;51.274;7.128;2023-06-01T06:06:09;35.45;;;22.00;;
12151;SDS011;6139;51.274;7.128;2023-06-01T06:07:12;30.33;;;22.05;;
12151;SDS011;6139;51.274;7.128;2023-06-01T06:08:13;33.03;;;22.20;;
12151;SDS011;6139;51.274;7.128;2023-06-01T06:09:15;31.85;;;21.45;;
12151;SDS011;6139;51.274;7.128;2023-06-01T06:10:18;33.08;;;21.98;;
12151;SDS011;6139;51.274;7.128;2023-06-01T06:11:20;37.35;;;22.83;;
12151;SDS011;6139;51.274;7.128;2023-06-01T06:12:22;37.83;;;23.33;;
12151;SDS011;6139;51.274;7.128;2023-06-01T06:13:24;33.42;;;23.20;;
12151;SDS011;6139;51.274;7.128;2023-06-01T06:14:25;37.90;;;23.95;;
12151;SDS011;6139;51.274;7.128;2023-06-01T06:15:28;37.15;;;24.17;;
12151;SDS011;6139;51.274;7.128;2023-06-01T06:16:30;34.92;;;24.10;;
12151;SDS011;6139;51.274;7.128;2023-06-01T06:17:32;36.05;;;23.38;;
12151;SDS011;6139;51.274;7.128;2023-06-01T06:18:35;35.05;;;24.17;;
12151;SDS011;6139;51.274;7.128;2023-06-01T06:19:38;37.72;;;23.55;;
12151;SDS011;6139;51.274;7.128;2023-06-01T06:20:39;36.45;;;24.52;;
12151;SDS011;6139;51.274;7.128;2023-06-01T06:21:42;34.80;;;23.45;;
12151;SDS011;6139;51.274;7.128;2023-06-01T06:22:44;34.42;;;22.95;;
12151;SDS011;6139;51.274;7.128;2023-06-01T06:23:51;39.08;;;22.95;;
12151;SDS011;6139;51.274;7.128;2023-06-01T06:24:53;32.92;;;23.20;;